createdAt,value
2023-05-12T00:01:37.692Z,34.73
2023-05-12T00:04:40.896Z,34.46
2023-05-12T00:07:45.438Z,34.88
2023-05-12T00:10:48.599Z,34.82
2023-05-12T00:13:51.755Z,34.76
2023-05-12T00:16:54.974Z,34.78
2023-05-12T00:19:58.175Z,34.71
2023-05-12T00:23:02.613Z,34.76
2023-05-12T00:26:05.821Z,34.67
2023-05-12T00:29:08.858Z,34.87
2023-05-12T00:32:12.007Z,34.77
2023-05-12T00:35:16.106Z,34.82
2023-05-12T00:38:20.598Z,34.69
2023-05-12T00:41:23.602Z,34.33
2023-05-12T00:44:26.895Z,34.74
2023-05-12T00:47:30.503Z,34.49
2023-05-12T00:50:33.650Z,34.61
2023-05-12T00:53:48.390Z,34.94
2023-05-12T00:56:53.075Z,34.66
2023-05-12T00:59:56.532Z,34.79
2023-05-12T01:02:59.795Z,34.55
2023-05-12T01:06:14.139Z,34.33
2023-05-12T01:09:19.263Z,34.70
2023-05-12T01:12:22.895Z,34.48
2023-05-12T01:15:26.222Z,34.32
2023-05-12T01:18:30.254Z,34.48
2023-05-12T01:21:33.390Z,34.77
2023-05-12T01:24:44.130Z,34.63
2023-05-12T01:27:49.736Z,34.51
2023-05-12T01:30:53.094Z,34.56
2023-05-12T01:33:56.217Z,34.46
2023-05-12T01:36:59.325Z,34.53
2023-05-12T01:40:02.582Z,34.60
2023-05-12T01:43:07.132Z,34.69
2023-05-12T01:46:11.042Z,34.60
2023-05-12T01:49:14.336Z,34.65
2023-05-12T01:52:17.413Z,34.79
2023-05-12T01:55:20.599Z,34.30
2023-05-12T01:58:25.195Z,34.26
2023-05-12T02:01:28.890Z,34.34
2023-05-12T02:04:32.169Z,34.56
2023-05-12T02:07:35.223Z,34.13
2023-05-12T02:10:38.289Z,34.69
2023-05-12T02:13:44.558Z,34.34
2023-05-12T02:16:50.941Z,34.29
2023-05-12T02:19:54.039Z,34.23
2023-05-12T02:22:57.379Z,34.18
2023-05-12T02:26:00.469Z,34.28
2023-05-12T02:29:05.020Z,34.41
2023-05-12T02:32:08.688Z,34.28
2023-05-12T02:35:12.171Z,34.17
2023-05-12T02:38:15.274Z,34.43
2023-05-12T02:41:18.390Z,34.62
2023-05-12T02:44:22.876Z,34.68
2023-05-12T02:47:26.051Z,34.34
2023-05-12T02:50:29.204Z,34.67
2023-05-12T02:53:32.367Z,34.30
2023-05-12T02:56:36.279Z,34.50
2023-05-12T02:59:40.784Z,34.37
2023-05-12T03:02:44.040Z,33.79
2023-05-12T03:05:48.734Z,34.69
2023-05-12T03:08:51.821Z,34.56
2023-05-12T03:11:54.913Z,34.14
2023-05-12T03:14:59.486Z,34.52
2023-05-12T03:18:02.570Z,34.27
2023-05-12T03:21:06.429Z,34.47
2023-05-12T03:24:10.092Z,34.62
2023-05-12T03:27:13.167Z,34.22
2023-05-12T03:30:17.967Z,34.97
2023-05-12T03:33:21.375Z,34.56
2023-05-12T03:36:24.502Z,34.58
2023-05-12T03:39:27.599Z,34.39
2023-05-12T03:42:30.603Z,34.56
2023-05-12T03:45:35.119Z,34.91
2023-05-12T03:48:38.233Z,34.96
2023-05-12T03:51:41.332Z,35.80
2023-05-12T03:54:44.441Z,36.40
2023-05-12T03:57:49.335Z,36.22
2023-05-12T04:00:53.977Z,35.72
2023-05-12T04:03:57.119Z,36.34
2023-05-12T04:07:01.255Z,36.06
2023-05-12T04:10:04.461Z,36.29
2023-05-12T04:13:08.243Z,36.62
2023-05-12T04:16:12.771Z,36.42
2023-05-12T04:19:15.803Z,36.91
2023-05-12T04:22:18.845Z,38.02
2023-05-12T04:25:22.132Z,37.29
2023-05-12T04:28:25.205Z,36.58
2023-05-12T04:31:29.894Z,36.18
2023-05-12T04:34:33.104Z,36.62
2023-05-12T04:37:36.226Z,36.71
2023-05-12T04:40:39.256Z,36.42
2023-05-12T04:46:49.853Z,36.72
2023-05-12T04:49:52.954Z,36.81
2023-05-12T04:52:56.036Z,36.72
2023-05-12T04:55:59.057Z,36.47
2023-05-12T04:59:02.257Z,37.11
2023-05-12T05:02:07.252Z,36.84
2023-05-12T05:05:11.094Z,37.08
2023-05-12T05:08:14.129Z,36.91
2023-05-12T05:11:17.213Z,37.02
2023-05-12T05:14:20.258Z,37.17
2023-05-12T05:17:24.703Z,37.00
2023-05-12T05:20:29.315Z,36.87
2023-05-12T05:23:32.566Z,36.72
2023-05-12T05:26:35.904Z,37.03
2023-05-12T05:29:38.948Z,37.31
2023-05-12T05:32:43.493Z,37.23
2023-05-12T05:35:46.716Z,37.48
2023-05-12T05:38:49.787Z,37.52
2023-05-12T05:41:52.774Z,37.44
2023-05-12T05:44:56.392Z,37.15
2023-05-12T05:48:00.878Z,37.24
2023-05-12T05:51:05.049Z,37.56
2023-05-12T05:54:08.049Z,37.02
2023-05-12T05:57:11.106Z,37.09
2023-05-12T06:00:15.527Z,37.25
2023-05-12T06:03:20.117Z,37.34
2023-05-12T06:06:23.394Z,37.51
2023-05-12T06:09:26.770Z,37.68
2023-05-12T06:12:29.884Z,37.78
2023-05-12T06:15:32.939Z,37.87
2023-05-12T06:18:38.342Z,37.25
2023-05-12T06:21:41.718Z,38.67
2023-05-12T06:24:44.743Z,38.71
2023-05-12T06:27:47.884Z,38.55
2023-05-12T06:30:51.517Z,38.67
2023-05-12T06:33:55.966Z,38.47
2023-05-12T06:36:59.008Z,38.77
2023-05-12T06:40:02.254Z,38.97
2023-05-12T06:43:05.794Z,38.76
2023-05-12T06:46:08.897Z,39.38
2023-05-12T06:49:13.383Z,39.08
2023-05-12T06:52:16.855Z,38.47
2023-05-12T06:55:20.834Z,38.86
2023-05-12T06:58:24.159Z,38.69
2023-05-12T07:01:27.209Z,40.09
2023-05-12T07:04:31.705Z,39.36
2023-05-12T07:07:35.751Z,38.48
2023-05-12T07:10:40.146Z,38.48
2023-05-12T07:13:44.994Z,38.85
2023-05-12T07:16:47.995Z,38.39
2023-05-12T07:19:52.878Z,38.36
2023-05-12T07:22:56.677Z,38.26
2023-05-12T07:26:00.343Z,38.65
2023-05-12T07:29:04.321Z,38.69
2023-05-12T07:32:07.642Z,38.21
2023-05-12T07:35:12.615Z,38.51
2023-05-12T07:38:15.646Z,38.55
2023-05-12T07:41:18.912Z,38.31
2023-05-12T07:44:22.397Z,38.43
2023-05-12T07:47:25.439Z,38.28
2023-05-12T07:50:29.981Z,38.45
2023-05-12T07:53:33.013Z,38.64
2023-05-12T07:56:36.293Z,38.24
2023-05-12T07:59:39.322Z,38.73
2023-05-12T08:02:43.362Z,38.32
2023-05-12T08:05:48.071Z,38.18
2023-05-12T08:08:51.205Z,38.33
2023-05-12T08:11:54.552Z,38.69
2023-05-12T08:14:57.820Z,38.53
2023-05-12T08:18:01.009Z,38.80
2023-05-12T08:21:06.042Z,38.39
2023-05-12T08:24:09.388Z,38.89
2023-05-12T08:27:12.505Z,38.90
2023-05-12T08:30:16.012Z,38.42
2023-05-12T08:33:19.169Z,38.81
2023-05-12T08:36:23.695Z,38.56
2023-05-12T08:39:30.990Z,38.27
2023-05-12T08:42:42.742Z,38.60
2023-05-12T08:45:47.031Z,38.05
2023-05-12T08:48:53.439Z,38.59
2023-05-12T08:52:01.002Z,38.59
2023-05-12T08:55:05.939Z,38.59
2023-05-12T08:58:09.785Z,38.63
2023-05-12T09:01:14.762Z,38.57
2023-05-12T09:04:18.435Z,38.46
2023-05-12T09:07:24.553Z,38.41
2023-05-12T09:13:41.136Z,38.77
2023-05-12T09:16:49.491Z,38.50
2023-05-12T09:19:52.651Z,38.45
2023-05-12T09:22:58.353Z,38.44
2023-05-12T09:26:02.316Z,38.34
2023-05-12T09:29:08.490Z,38.30
2023-05-12T09:32:11.894Z,38.34
2023-05-12T09:35:15.084Z,38.62
2023-05-12T09:38:19.560Z,38.83
2023-05-12T09:41:24.466Z,38.34
2023-05-12T09:44:29.132Z,38.56
2023-05-12T09:47:36.907Z,38.61
2023-05-12T09:50:48.565Z,38.58
2023-05-12T09:53:53.462Z,38.81
2023-05-12T09:56:59.552Z,38.39
2023-05-12T10:00:06.092Z,38.29
2023-05-12T10:03:17.174Z,38.73
2023-05-12T10:06:23.930Z,38.32
2023-05-12T10:09:34.080Z,38.34
2023-05-12T10:12:37.450Z,38.26
2023-05-12T10:15:41.383Z,38.48
2023-05-12T10:18:45.688Z,38.41
2023-05-12T10:21:49.063Z,38.80
2023-05-12T10:24:55.845Z,38.74
2023-05-12T10:28:00.800Z,38.57
2023-05-12T10:31:06.703Z,39.10
2023-05-12T10:34:18.221Z,38.55
2023-05-12T10:37:24.432Z,38.46
2023-05-12T10:40:29.240Z,38.72
2023-05-12T10:43:40.624Z,38.37
2023-05-12T10:46:43.841Z,38.85
2023-05-12T10:49:47.071Z,38.58
2023-05-12T10:52:55.089Z,38.41
2023-05-12T10:56:00.791Z,38.62
2023-05-12T10:59:14.531Z,38.62
2023-05-12T11:02:21.226Z,38.69
2023-05-12T11:05:35.480Z,38.51
2023-05-12T11:08:40.019Z,38.86
2023-05-12T11:11:45.700Z,38.65
2023-05-12T11:14:49.143Z,38.70
2023-05-12T11:17:52.530Z,38.34
2023-05-12T11:20:55.697Z,38.88
2023-05-12T11:23:59.284Z,38.48
2023-05-12T11:27:04.767Z,39.06
2023-05-12T11:30:11.202Z,38.58
2023-05-12T11:33:14.734Z,38.86
2023-05-12T11:36:21.751Z,38.86
2023-05-12T11:39:25.966Z,38.55
2023-05-12T11:42:30.341Z,38.85
2023-05-12T11:45:34.216Z,38.51
2023-05-12T11:48:37.366Z,38.90
2023-05-12T11:51:44.029Z,38.90
2023-05-12T11:54:50.842Z,38.81
2023-05-12T11:58:00.485Z,38.43
2023-05-12T12:01:11.348Z,38.40
2023-05-12T12:04:16.786Z,38.96
2023-05-12T12:07:30.076Z,38.81
2023-05-12T12:10:33.152Z,38.69
2023-05-12T12:13:37.594Z,38.81
2023-05-12T12:16:40.664Z,38.42
2023-05-12T12:19:43.827Z,38.58
2023-05-12T12:22:46.966Z,38.46
2023-05-12T12:25:50.030Z,38.46
2023-05-12T12:28:54.446Z,38.78
2023-05-12T12:31:57.532Z,38.79
2023-05-12T12:35:03.023Z,38.57
2023-05-12T12:38:06.211Z,38.78
2023-05-12T12:41:09.406Z,38.42
2023-05-12T12:44:13.798Z,38.57
2023-05-12T12:47:17.170Z,38.29
2023-05-12T12:50:20.876Z,38.64
2023-05-12T12:53:24.010Z,38.57
2023-05-12T12:56:27.116Z,38.40
2023-05-12T12:59:31.533Z,38.77
2023-05-12T13:02:35.026Z,38.53
2023-05-12T13:05:38.741Z,38.62
2023-05-12T13:08:42.496Z,38.74
2023-05-12T13:11:46.750Z,38.79
2023-05-12T13:14:51.258Z,38.64
2023-05-12T13:17:54.413Z,38.63
2023-05-12T13:20:57.670Z,38.91
2023-05-12T13:24:00.721Z,38.59
2023-05-12T13:27:08.149Z,38.67
2023-05-12T13:30:13.767Z,38.84
2023-05-12T13:33:17.164Z,38.64
2023-05-12T13:36:20.315Z,38.60
2023-05-12T13:39:23.325Z,38.77
2023-05-12T13:42:26.979Z,38.53
2023-05-12T13:45:31.575Z,38.52
2023-05-12T13:48:34.599Z,38.80
2023-05-12T13:51:37.560Z,38.60
2023-05-12T13:54:40.622Z,38.61
2023-05-12T13:57:43.726Z,38.77
2023-05-12T14:00:48.767Z,38.87
2023-05-12T14:03:51.817Z,38.85
2023-05-12T14:06:55.531Z,38.69
2023-05-12T14:09:58.653Z,38.86
2023-05-12T14:13:01.733Z,39.04
2023-05-12T14:16:07.265Z,38.81
2023-05-12T14:19:10.417Z,38.96
2023-05-12T14:22:25.667Z,39.03
2023-05-12T14:25:30.833Z,39.03
2023-05-12T14:28:34.365Z,38.68
2023-05-12T14:31:39.007Z,38.86
2023-05-12T14:34:42.125Z,39.11
2023-05-12T14:37:45.164Z,38.90
2023-05-12T14:40:49.418Z,38.68
2023-05-12T14:43:52.527Z,39.06
2023-05-12T14:46:57.066Z,38.91
2023-05-12T14:50:00.140Z,38.79
2023-05-12T14:53:03.193Z,38.74
2023-05-12T14:56:06.567Z,39.13
2023-05-12T14:59:09.734Z,39.28
2023-05-12T15:02:14.156Z,38.72
2023-05-12T15:05:17.406Z,39.06
2023-05-12T15:08:21.716Z,39.98
2023-05-12T15:11:25.285Z,39.37
2023-05-12T15:14:28.771Z,39.85
2023-05-12T15:17:33.409Z,40.19
2023-05-12T15:20:36.542Z,39.92
2023-05-12T15:23:41.643Z,40.13
2023-05-12T15:26:44.779Z,39.95
2023-05-12T15:29:47.861Z,40.38
2023-05-12T15:32:52.549Z,40.10
2023-05-12T15:35:55.854Z,40.67
2023-05-12T15:38:59.067Z,40.58
2023-05-12T15:42:02.351Z,41.31
2023-05-12T15:45:06.194Z,40.58
2023-05-12T15:48:10.932Z,39.04
2023-05-12T15:51:14.132Z,37.98
2023-05-12T15:54:17.424Z,38.00
2023-05-12T15:57:20.476Z,39.01
2023-05-12T16:00:23.751Z,37.71
2023-05-12T16:03:28.464Z,39.23
2023-05-12T16:06:31.639Z,40.06
2023-05-12T16:09:34.725Z,40.29
2023-05-12T16:12:37.851Z,41.49
2023-05-12T16:15:40.938Z,42.50
2023-05-12T16:18:45.572Z,42.17
2023-05-12T16:21:48.645Z,43.06
2023-05-12T16:24:51.789Z,43.02
2023-05-12T16:27:54.902Z,42.67
2023-05-12T16:30:58.081Z,43.21
2023-05-12T16:34:03.373Z,43.45
2023-05-12T16:37:06.848Z,43.26
2023-05-12T16:40:10.891Z,42.57
2023-05-12T16:43:14.026Z,43.28
2023-05-12T16:46:17.155Z,43.27
2023-05-12T16:49:21.618Z,43.30
2023-05-12T16:52:24.732Z,42.74
2023-05-12T16:55:28.056Z,42.63
2023-05-12T16:58:32.376Z,43.51
2023-05-12T17:01:36.232Z,43.54
2023-05-12T17:04:40.817Z,43.33
2023-05-12T17:07:43.952Z,44.20
2023-05-12T17:10:47.637Z,44.16
2023-05-12T17:13:50.761Z,43.98
2023-05-12T17:16:53.985Z,43.92
2023-05-12T17:19:58.792Z,43.95
2023-05-12T17:23:02.670Z,44.17
2023-05-12T17:26:06.199Z,43.62
2023-05-12T17:29:09.860Z,43.75
2023-05-12T17:32:13.040Z,43.51
2023-05-12T17:35:17.666Z,43.66
2023-05-12T17:38:21.544Z,43.47
2023-05-12T17:41:26.376Z,43.44
2023-05-12T17:44:30.113Z,43.75
2023-05-12T17:47:33.354Z,43.67
2023-05-12T17:50:39.451Z,43.45
2023-05-12T17:53:42.808Z,43.55
2023-05-12T17:56:45.918Z,43.48
2023-05-12T17:59:49.024Z,43.75
2023-05-12T18:02:52.429Z,43.43
2023-05-12T18:05:57.200Z,43.61
2023-05-12T18:09:00.255Z,43.80
2023-05-12T18:12:03.359Z,43.72
2023-05-12T18:15:07.493Z,44.04
2023-05-12T18:18:11.321Z,43.96
2023-05-12T18:21:15.958Z,43.49
2023-05-12T18:24:19.185Z,43.79
2023-05-12T18:27:22.410Z,42.69
2023-05-12T18:30:25.486Z,40.90
2023-05-12T18:33:28.717Z,39.96
2023-05-12T18:36:33.288Z,39.05
2023-05-12T18:39:36.577Z,38.56
2023-05-12T18:42:39.783Z,37.98
2023-05-12T18:45:42.927Z,37.35
2023-05-12T18:48:46.109Z,37.35
2023-05-12T18:51:50.711Z,37.10
2023-05-12T18:54:53.746Z,37.38
2023-05-12T18:57:56.863Z,37.59
2023-05-12T19:01:00.064Z,37.21
2023-05-12T19:04:03.801Z,36.80
2023-05-12T19:07:09.949Z,36.81
2023-05-12T19:10:13.424Z,36.72
2023-05-12T19:13:16.626Z,37.40
2023-05-12T19:16:19.723Z,37.32
2023-05-12T19:19:22.881Z,37.63
2023-05-12T19:22:28.209Z,37.23
2023-05-12T19:25:31.306Z,37.31
2023-05-12T19:28:34.553Z,37.31
2023-05-12T19:31:37.772Z,36.93
2023-05-12T19:34:41.185Z,37.27
2023-05-12T19:37:45.768Z,36.74
2023-05-12T19:40:48.885Z,36.85
2023-05-12T19:43:52.000Z,36.99
2023-05-12T19:46:56.750Z,36.81
2023-05-12T19:49:59.930Z,36.39
2023-05-12T19:53:04.540Z,36.63
2023-05-12T19:56:08.163Z,36.42
2023-05-12T19:59:11.325Z,36.47
2023-05-12T20:02:18.036Z,36.25
2023-05-12T20:05:21.521Z,36.85
2023-05-12T20:08:26.201Z,36.65
2023-05-12T20:11:29.450Z,36.71
2023-05-12T20:14:32.918Z,36.67
2023-05-12T20:17:36.609Z,36.43
2023-05-12T20:20:39.727Z,36.39
2023-05-12T20:23:44.501Z,36.71
2023-05-12T20:26:47.565Z,36.58
2023-05-12T20:29:50.643Z,36.15
2023-05-12T20:32:53.819Z,36.36
2023-05-12T20:35:56.994Z,36.57
2023-05-12T20:39:01.497Z,36.62
2023-05-12T20:42:05.065Z,36.36
2023-05-12T20:45:09.259Z,36.21
2023-05-12T20:48:12.397Z,36.54
2023-05-12T20:51:15.888Z,37.41
2023-05-12T20:54:20.385Z,38.28
2023-05-12T20:57:23.457Z,38.76
2023-05-12T21:00:26.613Z,39.02
2023-05-12T21:03:29.713Z,39.27
2023-05-12T21:06:33.920Z,39.82
2023-05-12T21:09:38.599Z,40.13
2023-05-12T21:12:41.772Z,40.00
2023-05-12T21:15:45.197Z,40.32
2023-05-12T21:18:48.371Z,39.90
2023-05-12T21:21:51.437Z,40.19
2023-05-12T21:24:55.848Z,40.10
2023-05-12T21:27:58.888Z,40.41
2023-05-12T21:31:01.938Z,40.74
2023-05-12T21:34:04.953Z,40.61
2023-05-12T21:37:08.002Z,40.25
2023-05-12T21:40:13.562Z,40.85
2023-05-12T21:43:16.620Z,40.63
2023-05-12T21:46:19.748Z,40.58
2023-05-12T21:49:22.970Z,40.80
2023-05-12T21:52:26.294Z,40.97
2023-05-12T21:55:30.819Z,40.69
2023-05-12T21:58:33.845Z,40.68
2023-05-12T22:01:37.080Z,40.55
2023-05-12T22:04:40.532Z,40.91
2023-05-12T22:07:43.563Z,40.99
2023-05-12T22:10:48.136Z,41.15
2023-05-12T22:13:51.437Z,41.17
2023-05-12T22:16:54.829Z,41.02
2023-05-12T22:19:58.018Z,40.56
2023-05-12T22:23:01.162Z,40.94
2023-05-12T22:26:05.790Z,41.10
2023-05-12T22:29:08.837Z,40.76
2023-05-12T22:32:11.926Z,41.04
2023-05-12T22:35:15.240Z,40.52
2023-05-12T22:38:18.298Z,40.73
2023-05-12T22:41:22.791Z,40.67
2023-05-12T22:44:25.898Z,41.25
2023-05-12T22:47:29.059Z,40.76
2023-05-12T22:50:32.265Z,41.14
2023-05-12T22:53:36.843Z,40.77
2023-05-12T22:56:41.339Z,40.99
2023-05-12T22:59:44.471Z,40.57
2023-05-12T23:02:47.629Z,40.72
2023-05-12T23:05:50.835Z,41.06
2023-05-12T23:08:53.960Z,40.96
2023-05-12T23:11:58.570Z,41.25
2023-05-12T23:15:01.681Z,41.01
2023-05-12T23:18:05.222Z,41.25
2023-05-12T23:21:08.473Z,41.01
2023-05-12T23:24:11.608Z,41.21
2023-05-12T23:27:16.180Z,41.17
2023-05-12T23:30:19.424Z,40.84
2023-05-12T23:33:22.759Z,40.83
2023-05-12T23:36:25.971Z,40.75
2023-05-12T23:39:29.178Z,41.13
2023-05-12T23:42:33.645Z,40.85
2023-05-12T23:45:36.815Z,40.97
2023-05-12T23:48:39.976Z,40.93
2023-05-12T23:51:43.309Z,41.08
2023-05-12T23:54:46.417Z,40.95
2023-05-12T23:57:51.142Z,41.14
